Time;durP1;ratioP1;P1;durP2;ratioP2;P2;SDS_P1;SDS_P2;PMS_P1;PMS_P2;Temp;Humidity;BMP_temperature;BMP_pressure;BME280_temperature;BME280_humidity;BME280_pressure;Samples;Min_cycle;Max_cycle;Signal;HPM_P1;HPM_P2
2023/03/15 00:08:32;;;;;;;7.50;2.60;;;;;;;6.93;81.32;98812.42;682934;1263;138178;-81
2023/03/15 00:23:35;;;;;;;7.40;2.20;;;;;;;6.94;81.12;98847.97;682760;1263;138202;-82
2023/03/15 00:38:40;;;;;;;5.40;2.30;;;;;;;6.67;82.01;98887.35;682937;1263;137954;-81
2023/03/15 00:53:44;;;;;;;4.50;2.00;;;;;;;6.79;81.77;98906.09;682931;1262;138236;-82
2023/03/15 01:08:50;;;;;;;4.50;1.90;;;;;;;6.66;81.93;98954.90;682977;1264;137908;-82
2023/03/15 01:23:53;;;;;;;39.20;16.80;;;;;;;6.46;82.49;98988.98;683019;1273;138346;-83
2023/03/15 01:38:58;;;;;;;8.70;2.70;;;;;;;6.38;83.43;99004.83;683126;1259;137614;-82
2023/03/15 01:54:29;;;;;;;6.90;3.00;;;;;;;6.32;84.63;99037.84;682888;1260;138406;-82
2023/03/15 02:09:42;;;;;;;9.70;3.50;;;;;;;6.22;86.57;99079.55;682689;1262;138507;-81
2023/03/15 02:25:20;;;;;;;7.70;3.60;;;;;;;6.34;86.66;99088.45;682865;1259;138525;-81
2023/03/15 02:40:26;;;;;;;11.10;4.40;;;;;;;6.47;86.47;99124.96;682722;1259;138203;-82
2023/03/15 02:55:33;;;;;;;8.20;4.30;;;;;;;6.46;86.13;99172.13;682853;1258;138547;-82
2023/03/15 03:10:36;;;;;;;12.50;5.40;;;;;;;6.38;85.85;99207.88;682755;1260;138258;-81
2023/03/15 03:25:40;;;;;;;14.10;4.50;;;;;;;6.50;85.08;99217.12;682779;1259;138572;-81
2023/03/15 03:40:45;;;;;;;57.00;23.80;;;;;;;6.53;84.27;99252.77;682798;1259;163488;-81
2023/03/15 03:55:48;;;;;;;12.10;4.50;;;;;;;6.45;82.77;99297.45;682937;1259;138957;-83
2023/03/15 04:10:56;;;;;;;9.50;3.40;;;;;;;6.27;81.53;99331.96;682767;1257;138473;-81
2023/03/15 04:26:04;;;;;;;36.50;23.00;;;;;;;6.21;79.68;99354.04;682784;1259;138236;-81
2023/03/15 04:41:19;;;;;;;118.70;34.00;;;;;;;5.87;79.04;99360.64;682884;1260;138394;-83
2023/03/15 04:56:41;;;;;;;13.40;4.70;;;;;;;5.58;79.45;99377.52;682914;1263;138760;-81
2023/03/15 05:12:13;;;;;;;15.80;4.60;;;;;;;5.25;79.97;99411.08;682970;1263;138827;-82
2023/03/15 05:27:21;;;;;;;14.20;5.40;;;;;;;5.05;80.34;99433.95;682904;1259;138391;-83
2023/03/15 05:42:43;;;;;;;12.90;4.90;;;;;;;5.02;80.33;99463.34;682640;1263;138640;-82
2023/03/15 05:57:55;;;;;;;21.30;5.20;;;;;;;4.92;80.81;99489.19;682536;1259;138245;-82
2023/03/15 06:13:13;;;;;;;13.30;4.40;;;;;;;5.04;79.84;99524.45;682577;1260;138348;-82
2023/03/15 06:28:20;;;;;;;22.30;8.30;;;;;;;5.27;79.25;99558.58;682904;1263;138617;-84
2023/03/15 06:43:28;;;;;;;29.70;11.60;;;;;;;5.49;78.09;99598.87;682878;1261;138675;-84
2023/03/15 06:58:31;;;;;;;14.90;5.20;;;;;;;5.83;76.43;99616.36;683110;1263;139337;-83
2023/03/15 07:13:34;;;;;;;14.00;5.50;;;;;;;5.73;75.67;99639.31;682988;1260;138636;-82
2023/03/15 07:28:37;;;;;;;11.10;5.30;;;;;;;5.61;75.03;99670.15;683133;1262;138219;-82
2023/03/15 07:43:41;;;;;;;60.50;24.60;;;;;;;5.80;74.12;99689.65;682847;1258;138429;-83
2023/03/15 07:58:48;;;;;;;54.20;20.90;;;;;;;5.87;73.03;99718.09;682676;1263;139247;-83
2023/03/15 08:13:51;;;;;;;57.40;16.30;;;;;;;6.15;71.71;99726.91;682874;1260;139198;-83
2023/03/15 08:28:54;;;;;;;29.10;10.70;;;;;;;6.66;70.47;99740.25;683053;1262;139231;-83
2023/03/15 08:43:58;;;;;;;15.60;4.10;;;;;;;6.89;68.81;99759.66;682796;1260;138654;-82
2023/03/15 08:59:01;;;;;;;20.30;7.70;;;;;;;7.43;67.01;99789.55;682769;1262;138550;-81
2023/03/15 09:14:04;;;;;;;15.30;5.00;;;;;;;7.43;66.22;99804.98;682757;1263;138772;-84
2023/03/15 09:29:10;;;;;;;48.60;20.00;;;;;;;7.41;66.27;99836.47;682825;1263;138356;-82
2023/03/15 09:44:16;;;;;;;73.70;27.80;;;;;;;7.46;66.58;99859.73;682758;1260;138721;-82
2023/03/15 09:59:21;;;;;;;41.80;15.40;;;;;;;7.46;66.14;99868.40;683042;1263;138916;-83
2023/03/15 10:14:40;;;;;;;14.30;7.60;;;;;;;7.63;65.40;99877.70;682729;1260;139000;-81
2023/03/15 10:29:44;;;;;;;21.00;8.20;;;;;;;7.51;63.71;99900.19;683034;1260;138460;-82
2023/03/15 10:44:47;;;;;;;73.80;28.60;;;;;;;7.73;62.82;99896.56;682918;1263;138409;-82
2023/03/15 11:00:05;;;;;;;29.50;12.00;;;;;;;7.80;63.20;99906.92;682799;1262;139296;-83
2023/03/15 11:15:14;;;;;;;8.30;4.50;;;;;;;8.02;63.13;99914.52;682637;1262;139399;-83
2023/03/15 11:30:24;;;;;;;47.00;21.40;;;;;;;8.05;63.53;99932.41;682955;1263;139017;-81
2023/03/15 11:45:52;;;;;;;14.70;5.90;;;;;;;8.07;63.68;99946.30;682731;1263;138820;-81
2023/03/15 12:01:10;;;;;;;29.00;14.30;;;;;;;8.27;62.92;99949.39;682931;1262;138733;-80
2023/03/15 12:16:13;;;;;;;16.90;6.20;;;;;;;8.23;61.66;99956.65;683040;1263;138553;-83
2023/03/15 12:31:17;;;;;;;15.20;6.40;;;;;;;8.38;61.42;99962.93;682876;1263;138467;-81
2023/03/15 12:46:51;;;;;;;11.80;4.50;;;;;;;8.71;59.90;99956.70;682903;1267;138413;-81
2023/03/15 13:02:25;;;;;;;21.50;8.00;;;;;;;9.52;58.45;99968.74;682652;1263;138515;-82
2023/03/15 13:17:50;;;;;;;15.80;7.30;;;;;;;9.41;57.20;99981.38;682947;1272;138024;-82
2023/03/15 13:33:30;;;;;;;80.50;35.00;;;;;;;9.07;58.10;99995.45;682764;1262;139852;-81
2023/03/15 13:48:36;;;;;;;43.90;24.00;;;;;;;9.28;57.84;100007.80;682912;1272;138479;-81
2023/03/15 14:03:42;;;;;;;24.10;10.80;;;;;;;9.13;58.49;100036.13;682950;1263;138060;-82
2023/03/15 14:18:50;;;;;;;103.30;43.90;;;;;;;9.61;57.71;100040.77;682786;1273;138899;-81
2023/03/15 14:34:06;;;;;;;42.50;16.00;;;;;;;12.54;55.09;100059.74;682774;1263;140220;-81
2023/03/15 14:49:25;;;;;;;35.20;14.90;;;;;;;14.12;54.30;100067.22;682811;1261;138444;-82
2023/03/15 15:04:33;;;;;;;17.90;8.30;;;;;;;10.22;56.90;100097.62;682927;1260;138208;-83
2023/03/15 15:19:44;;;;;;;49.00;16.90;;;;;;;8.80;59.78;100117.73;682731;1257;138187;-82
2023/03/15 15:34:53;;;;;;;26.70;11.70;;;;;;;9.72;61.88;100117.02;682805;1261;139029;-82
2023/03/15 15:49:57;;;;;;;36.80;18.20;;;;;;;12.19;60.28;100121.91;683011;1263;140302;-81
2023/03/15 16:05:01;;;;;;;19.90;9.20;;;;;;;12.88;59.14;100143.63;682861;1257;138816;-82
2023/03/15 16:20:08;;;;;;;23.60;9.20;;;;;;;12.57;57.37;100149.93;682710;1259;138529;-82
2023/03/15 16:35:16;;;;;;;107.40;41.20;;;;;;;12.21;57.11;100163.55;683107;1257;137867;-81
2023/03/15 16:50:20;;;;;;;38.30;17.70;;;;;;;10.53;56.86;100183.04;682833;1262;138221;-81
2023/03/15 17:05:24;;;;;;;162.80;70.40;;;;;;;9.29;58.38;100204.10;682743;1257;138770;-81
2023/03/15 17:20:29;;;;;;;195.90;72.70;;;;;;;8.31;59.93;100222.45;682789;1260;138684;-81
2023/03/15 17:35:37;;;;;;;546.60;247.90;;;;;;;7.64;60.67;100233.17;682993;1260;138946;-82
2023/03/15 17:50:43;;;;;;;155.90;70.40;;;;;;;7.12;61.80;100255.00;682610;1263;139318;-82
2023/03/15 18:05:47;;;;;;;459.60;162.60;;;;;;;6.45;62.57;100267.41;682735;1258;138729;-82
2023/03/15 18:20:52;;;;;;;277.60;93.10;;;;;;;5.83;63.65;100282.14;682592;1262;139646;-82
2023/03/15 18:35:57;;;;;;;286.60;97.00;;;;;;;5.43;64.82;100297.98;683066;1260;139200;-81
2023/03/15 18:51:01;;;;;;;222.80;85.00;;;;;;;5.18;66.05;100311.23;682482;1259;139194;-81
2023/03/15 19:06:07;;;;;;;81.90;34.90;;;;;;;4.95;66.33;100319.77;682762;1263;139020;-82
2023/03/15 19:21:11;;;;;;;65.50;25.60;;;;;;;4.59;66.66;100339.38;682843;1261;138632;-82
2023/03/15 19:36:15;;;;;;;171.20;57.10;;;;;;;4.35;67.65;100354.70;683070;1259;139456;-83
2023/03/15 19:51:19;;;;;;;77.80;34.30;;;;;;;4.30;67.69;100370.21;682962;1262;139166;-83
2023/03/15 20:06:23;;;;;;;98.30;42.90;;;;;;;4.05;68.04;100385.73;682950;1261;138684;-82
2023/03/15 20:21:28;;;;;;;121.30;54.40;;;;;;;3.77;68.78;100402.60;682631;1263;139173;-81
2023/03/15 20:36:33;;;;;;;102.70;36.60;;;;;;;3.87;68.99;100410.86;682465;1259;139564;-83
2023/03/15 20:51:37;;;;;;;69.90;32.50;;;;;;;4.07;68.42;100417.97;682711;1261;139083;-82
2023/03/15 21:06:41;;;;;;;59.40;25.80;;;;;;;4.04;68.24;100422.11;682549;1263;138769;-82
2023/03/15 21:21:45;;;;;;;65.60;27.00;;;;;;;3.86;67.71;100427.33;682402;1259;141379;-83
2023/03/15 21:36:48;;;;;;;42.40;20.10;;;;;;;3.67;67.80;100442.42;682595;1263;141628;-81
2023/03/15 21:51:51;;;;;;;36.10;17.30;;;;;;;3.83;67.28;100444.25;682561;1259;139512;-82
2023/03/15 22:06:55;;;;;;;37.70;18.00;;;;;;;3.81;67.28;100456.35;682886;1259;142529;-83
2023/03/15 22:21:58;;;;;;;888.10;226.80;;;;;;;3.65;67.62;100479.08;683202;1259;138684;-83
2023/03/15 22:37:02;;;;;;;66.40;26.00;;;;;;;3.51;67.82;100494.34;682824;1263;141578;-81
2023/03/15 22:52:06;;;;;;;86.20;32.10;;;;;;;3.37;68.47;100500.63;682834;1260;138773;-83
2023/03/15 23:07:09;;;;;;;28.20;13.40;;;;;;;3.40;68.64;100504.45;683026;1260;139515;-83
2023/03/15 23:22:12;;;;;;;25.80;12.00;;;;;;;3.57;68.55;100508.92;682975;1260;139227;-84
2023/03/15 23:37:16;;;;;;;32.00;14.30;;;;;;;3.52;68.59;100524.91;682781;1262;139599;-82
2023/03/15 23:52:21;;;;;;;28.90;11.90;;;;;;;3.42;68.51;100539.92;682979;1258;138797;-82
